createdAt,value
2023-03-01T00:01:08.011Z,95199.34
2023-03-01T00:03:35.293Z,95212.94
2023-03-01T00:06:02.769Z,95221.72
2023-03-01T00:08:31.118Z,95210.03
2023-03-01T00:11:05.318Z,95209.84
2023-03-01T00:13:32.348Z,95208.84
2023-03-01T00:15:59.245Z,95219.97
2023-03-01T00:18:26.316Z,95218.81
2023-03-01T00:20:54.652Z,95200.09
2023-03-01T00:23:22.256Z,95201.94
2023-03-01T00:25:50.339Z,95213.25
2023-03-01T00:28:17.553Z,95215.69
2023-03-01T00:30:44.689Z,95205.38
2023-03-01T00:33:11.576Z,95192.88
2023-03-01T00:35:39.096Z,95205.75
2023-03-01T00:38:06.248Z,95195.41
2023-03-01T00:40:35.684Z,95201.47
2023-03-01T00:43:03.315Z,95198.63
2023-03-01T00:45:31.962Z,95189.44
2023-03-01T00:47:59.213Z,95181.00
2023-03-01T00:50:26.686Z,95188.84
2023-03-01T00:52:55.093Z,95185.16
2023-03-01T00:55:22.679Z,95179.63
2023-03-01T00:57:49.720Z,95188.81
2023-03-01T01:00:17.203Z,95186.94
2023-03-01T01:02:43.903Z,95184.66
2023-03-01T01:05:11.706Z,95189.06
2023-03-01T01:07:38.870Z,95184.28
2023-03-01T01:10:06.530Z,95176.75
2023-03-01T01:12:33.974Z,95190.03
2023-03-01T01:15:00.672Z,95186.22
2023-03-01T01:17:27.670Z,95168.56
2023-03-01T01:19:54.416Z,95171.50
2023-03-01T01:22:21.105Z,95163.66
2023-03-01T01:24:47.854Z,95161.69
2023-03-01T01:27:14.584Z,95156.41
2023-03-01T01:29:43.114Z,95153.69
2023-03-01T01:32:09.925Z,95141.13
2023-03-01T01:34:37.118Z,95140.44
2023-03-01T01:37:04.318Z,95138.06
2023-03-01T01:39:31.072Z,95138.81
2023-03-01T01:41:58.184Z,95139.94
2023-03-01T01:44:28.344Z,95151.38
2023-03-01T01:47:05.058Z,95144.88
2023-03-01T01:49:42.100Z,95133.19
2023-03-01T01:52:12.313Z,95122.78
2023-03-01T01:54:47.991Z,95115.69
2023-03-01T01:57:20.859Z,95109.88
2023-03-01T01:59:53.468Z,95111.72
2023-03-01T02:02:21.309Z,95113.69
2023-03-01T02:04:51.791Z,95117.56
2023-03-01T02:07:22.625Z,95100.09
2023-03-01T02:09:53.394Z,95096.09
2023-03-01T02:12:24.996Z,95098.41
2023-03-01T02:14:51.927Z,95102.09
2023-03-01T02:17:19.879Z,95107.94
2023-03-01T02:20:17.752Z,95099.63
2023-03-01T02:22:45.930Z,95109.47
2023-03-01T02:25:41.119Z,95105.88
2023-03-01T02:28:17.046Z,95099.25
2023-03-01T02:31:04.610Z,95101.63
2023-03-01T02:33:34.042Z,95095.66
2023-03-01T02:36:04.964Z,95110.38
2023-03-01T02:38:33.057Z,95100.41
2023-03-01T02:41:01.645Z,95093.88
2023-03-01T02:43:32.525Z,95097.97
2023-03-01T02:46:04.780Z,95104.94
2023-03-01T02:48:45.536Z,95117.44
2023-03-01T02:51:29.015Z,95114.16
2023-03-01T02:54:17.478Z,95087.28
2023-03-01T02:56:49.871Z,95095.44
2023-03-01T02:59:22.269Z,95096.19
2023-03-01T03:01:49.444Z,95106.63
2023-03-01T03:04:21.894Z,95100.06
2023-03-01T03:06:52.060Z,95096.84
2023-03-01T03:09:19.556Z,95101.53
2023-03-01T03:11:47.046Z,95108.28
2023-03-01T03:14:16.974Z,95107.78
2023-03-01T03:16:49.145Z,95103.75
2023-03-01T03:19:17.684Z,95109.34
2023-03-01T03:21:44.904Z,95114.28
2023-03-01T03:24:11.643Z,95108.31
2023-03-01T03:26:38.519Z,95092.53
2023-03-01T03:29:05.431Z,95090.16
2023-03-01T03:31:32.160Z,95108.88
2023-03-01T03:34:00.108Z,95099.66
2023-03-01T03:36:27.013Z,95112.22
2023-03-01T03:38:54.017Z,95100.81
2023-03-01T03:41:20.794Z,95107.50
2023-03-01T03:43:47.556Z,95082.66
2023-03-01T03:46:14.809Z,95089.44
2023-03-01T03:48:44.934Z,95101.38
2023-03-01T03:51:14.539Z,95099.75
2023-03-01T03:53:41.934Z,95098.13
2023-03-01T03:56:09.259Z,95087.00
2023-03-01T03:58:36.725Z,95080.31
2023-03-01T04:01:04.318Z,95082.88
2023-03-01T04:03:33.159Z,95094.72
2023-03-01T04:06:01.336Z,95082.75
2023-03-01T04:08:29.597Z,95087.84
2023-03-01T04:11:22.175Z,95075.94
2023-03-01T04:13:49.519Z,95074.50
2023-03-01T04:16:16.606Z,95075.06
2023-03-01T04:18:43.773Z,95069.75
2023-03-01T04:21:12.264Z,95071.97
2023-03-01T04:23:39.794Z,95073.28
2023-03-01T04:26:06.444Z,95064.97
2023-03-01T04:28:37.040Z,95064.59
2023-03-01T04:31:24.097Z,95072.91
2023-03-01T04:33:53.725Z,95070.88
2023-03-01T04:36:23.717Z,95076.72
2023-03-01T04:38:51.306Z,95073.56
2023-03-01T04:41:19.610Z,95071.44
2023-03-01T04:43:46.728Z,95057.13
2023-03-01T04:46:15.994Z,95065.78
2023-03-01T04:48:45.371Z,95072.03
2023-03-01T04:51:15.775Z,95062.88
2023-03-01T04:53:44.166Z,95062.25
2023-03-01T04:56:11.898Z,95065.91
2023-03-01T04:58:39.043Z,95059.13
2023-03-01T05:01:19.894Z,95048.13
2023-03-01T05:03:49.494Z,95041.16
2023-03-01T05:06:17.872Z,95050.59
2023-03-01T05:08:45.443Z,95047.19
2023-03-01T05:11:13.629Z,95048.91
2023-03-01T05:13:41.227Z,95042.94
2023-03-01T05:16:13.238Z,95044.88
2023-03-01T05:18:41.800Z,95053.38
2023-03-01T05:21:11.617Z,95043.94
2023-03-01T05:23:39.050Z,95035.22
2023-03-01T05:26:09.440Z,95055.06
2023-03-01T05:28:38.968Z,95046.50
2023-03-01T05:31:10.620Z,95051.59
2023-03-01T05:33:39.163Z,95041.66
2023-03-01T05:36:08.262Z,95045.63
2023-03-01T05:38:35.190Z,95033.56
2023-03-01T05:41:02.024Z,95039.50
2023-03-01T05:43:34.929Z,95049.88
2023-03-01T05:46:02.195Z,95049.97
2023-03-01T05:48:30.649Z,95035.72
2023-03-01T05:51:01.692Z,95034.69
2023-03-01T05:53:28.364Z,95035.97
2023-03-01T05:55:55.274Z,95047.59
2023-03-01T05:58:22.734Z,95057.25
2023-03-01T06:00:50.345Z,95034.19
2023-03-01T06:03:18.655Z,95028.41
2023-03-01T06:05:45.994Z,95031.72
2023-03-01T06:08:13.320Z,95046.66
2023-03-01T06:10:40.652Z,95035.78
2023-03-01T06:13:07.732Z,95031.16
2023-03-01T06:15:34.658Z,95039.28
2023-03-01T06:18:01.404Z,95037.03
2023-03-01T06:20:29.783Z,95029.97
2023-03-01T06:22:56.890Z,95019.88
2023-03-01T06:25:26.210Z,95020.44
2023-03-01T06:27:55.982Z,95026.31
2023-03-01T06:30:24.660Z,95032.34
2023-03-01T06:32:51.412Z,95040.09
2023-03-01T06:35:19.812Z,95028.53
2023-03-01T06:37:48.163Z,95029.63
2023-03-01T06:40:15.442Z,95044.03
2023-03-01T06:42:43.655Z,95050.69
2023-03-01T06:45:11.154Z,95057.22
2023-03-01T06:47:37.820Z,95049.63
2023-03-01T06:50:04.975Z,95053.09
2023-03-01T06:52:31.850Z,95061.59
2023-03-01T06:54:58.684Z,95056.06
2023-03-01T06:57:25.964Z,95057.69
2023-03-01T06:59:52.718Z,95066.88
2023-03-01T07:02:19.544Z,95060.88
2023-03-01T07:04:46.982Z,95064.19
2023-03-01T07:07:13.918Z,95054.22
2023-03-01T07:09:40.601Z,95030.00
2023-03-01T07:12:08.981Z,95039.56
2023-03-01T07:14:35.710Z,95032.88
2023-03-01T07:17:02.562Z,95032.53
2023-03-01T07:19:29.384Z,95055.03
2023-03-01T07:21:56.971Z,95052.31
2023-03-01T07:24:24.268Z,95047.16
2023-03-01T07:26:52.497Z,95060.22
2023-03-01T07:29:19.503Z,95054.09
2023-03-01T07:31:46.926Z,95042.09
2023-03-01T07:34:13.913Z,95054.72
2023-03-01T07:36:44.271Z,95049.66
2023-03-01T07:39:12.930Z,95044.56
2023-03-01T07:41:40.071Z,95023.50
2023-03-01T07:44:06.801Z,95041.81
2023-03-01T07:46:33.694Z,95027.81
2023-03-01T07:49:01.128Z,95046.38
2023-03-01T07:51:28.045Z,95045.19
2023-03-01T07:53:54.917Z,95030.38
2023-03-01T07:56:23.086Z,95021.47
2023-03-01T07:58:51.199Z,95014.47
2023-03-01T08:01:21.029Z,95008.38
2023-03-01T08:03:47.763Z,95014.97
2023-03-01T08:06:18.274Z,95020.22
2023-03-01T08:08:46.348Z,95026.63
2023-03-01T08:11:16.227Z,95022.69
2023-03-01T08:13:44.375Z,95015.16
2023-03-01T08:16:14.104Z,95010.88
2023-03-01T08:18:41.939Z,95014.50
2023-03-01T08:21:12.119Z,95032.19
2023-03-01T08:23:40.973Z,95033.69
2023-03-01T08:26:19.525Z,95013.41
2023-03-01T08:28:47.554Z,95018.78
2023-03-01T08:31:16.565Z,95011.69
2023-03-01T08:33:43.713Z,94991.81
2023-03-01T08:36:10.823Z,95004.06
2023-03-01T08:38:37.592Z,95015.75
2023-03-01T08:41:04.949Z,95005.16
2023-03-01T08:43:31.861Z,95009.63
2023-03-01T08:45:58.910Z,95014.13
2023-03-01T08:48:26.436Z,95005.81
2023-03-01T08:50:53.189Z,94986.56
2023-03-01T08:53:19.961Z,95004.84
2023-03-01T08:55:46.857Z,95004.44
2023-03-01T08:58:14.019Z,95000.66
2023-03-01T09:00:41.238Z,94990.66
2023-03-01T09:03:08.177Z,94994.97
2023-03-01T09:05:35.578Z,95008.94
2023-03-01T09:08:02.785Z,95009.91
2023-03-01T09:10:29.797Z,94998.25
2023-03-01T09:12:56.768Z,94997.56
2023-03-01T09:15:23.602Z,94993.88
2023-03-01T09:17:50.305Z,94989.00
2023-03-01T09:20:17.845Z,94971.69
2023-03-01T09:22:45.328Z,94984.72
2023-03-01T09:25:12.165Z,94976.09
2023-03-01T09:27:39.311Z,94968.94
2023-03-01T09:30:06.951Z,94962.31
2023-03-01T09:32:33.972Z,94952.97
2023-03-01T09:35:05.878Z,94957.47
2023-03-01T09:37:34.549Z,94977.63
2023-03-01T09:40:02.392Z,94980.84
2023-03-01T09:42:32.576Z,94985.59
2023-03-01T09:45:02.262Z,94993.75
2023-03-01T09:47:32.255Z,94987.06
2023-03-01T09:50:34.547Z,94997.44
2023-03-01T09:53:11.848Z,94992.31
2023-03-01T09:55:44.239Z,95004.28
2023-03-01T09:58:36.253Z,95002.47
2023-03-01T10:01:32.838Z,95002.75
2023-03-01T10:04:02.744Z,94998.69
2023-03-01T10:06:34.851Z,94995.91
2023-03-01T10:09:14.694Z,95003.81
2023-03-01T10:11:57.522Z,95000.06
2023-03-01T10:14:50.793Z,94994.56
2023-03-01T10:17:41.097Z,94990.94
2023-03-01T10:20:26.019Z,94987.03
2023-03-01T10:22:53.694Z,94993.13
2023-03-01T10:25:44.683Z,94991.66
2023-03-01T10:28:17.864Z,95011.78
2023-03-01T10:30:46.360Z,94998.78
2023-03-01T10:33:23.288Z,94997.41
2023-03-01T10:35:50.477Z,94995.66
2023-03-01T10:38:18.917Z,94995.78
2023-03-01T10:41:02.916Z,94983.00
2023-03-01T10:43:44.833Z,94985.16
2023-03-01T10:46:43.745Z,94972.22
2023-03-01T10:49:20.496Z,94953.91
2023-03-01T10:51:51.221Z,94962.59
2023-03-01T10:54:30.380Z,94952.75
2023-03-01T10:56:59.790Z,94951.47
2023-03-01T10:59:38.840Z,94942.56
2023-03-01T11:02:25.136Z,94946.81
2023-03-01T11:05:20.661Z,94934.41
2023-03-01T11:07:59.825Z,94935.44
2023-03-01T11:10:36.202Z,94921.56
2023-03-01T11:13:16.903Z,94923.53
2023-03-01T11:15:59.038Z,94924.44
2023-03-01T11:18:46.144Z,94926.69
2023-03-01T11:21:16.889Z,94930.19
2023-03-01T11:23:47.028Z,94923.31
2023-03-01T11:26:16.747Z,94940.44
2023-03-01T11:28:46.517Z,94930.59
2023-03-01T11:31:15.222Z,94921.81
2023-03-01T11:34:00.678Z,94907.63
2023-03-01T11:36:54.726Z,94914.75
2023-03-01T11:40:06.112Z,94908.19
2023-03-01T11:42:48.188Z,94915.06
2023-03-01T11:45:15.392Z,94911.81
2023-03-01T11:47:58.052Z,94919.59
2023-03-01T11:50:42.244Z,94915.19
2023-03-01T11:53:34.220Z,94914.00
2023-03-01T11:56:10.164Z,94919.69
2023-03-01T11:59:18.737Z,94915.38
2023-03-01T12:01:54.677Z,94895.91
2023-03-01T12:04:48.739Z,94885.66
2023-03-01T12:07:21.898Z,94876.69
2023-03-01T12:10:21.500Z,94877.81
2023-03-01T12:13:03.937Z,94860.84
2023-03-01T12:15:49.989Z,94871.84
2023-03-01T12:19:01.028Z,94869.69
2023-03-01T12:21:49.843Z,94869.47
2023-03-01T12:24:28.566Z,94885.19
2023-03-01T12:27:04.358Z,94858.69
2023-03-01T12:29:50.556Z,94863.66
2023-03-01T12:32:36.418Z,94873.38
2023-03-01T12:35:32.460Z,94862.41
2023-03-01T12:38:14.809Z,94864.16
2023-03-01T12:41:25.480Z,94864.50
2023-03-01T12:44:02.582Z,94867.09
2023-03-01T12:46:35.846Z,94856.91
2023-03-01T12:49:17.591Z,94857.25
2023-03-01T12:52:04.076Z,94858.00
2023-03-01T12:54:34.506Z,94844.22
2023-03-01T12:57:10.991Z,94837.03
2023-03-01T12:59:59.471Z,94819.53
2023-03-01T13:02:39.689Z,94826.34
2023-03-01T13:05:31.519Z,94840.75
2023-03-01T13:08:11.804Z,94837.69
2023-03-01T13:10:49.690Z,94845.41
2023-03-01T13:13:23.090Z,94840.16
2023-03-01T13:15:54.692Z,94842.63
2023-03-01T13:18:23.108Z,94844.34
2023-03-01T13:20:49.776Z,94851.06
2023-03-01T13:23:22.794Z,94836.69
2023-03-01T13:26:01.488Z,94824.44
2023-03-01T13:28:49.929Z,94842.19
2023-03-01T13:31:16.820Z,94823.25
2023-03-01T13:33:48.637Z,94823.84
2023-03-01T13:36:31.385Z,94815.81
2023-03-01T13:39:01.040Z,94811.94
2023-03-01T13:41:40.237Z,94807.56
2023-03-01T13:44:33.102Z,94838.13
2023-03-01T13:47:18.463Z,94825.09
2023-03-01T13:50:04.589Z,94818.03
2023-03-01T13:53:00.432Z,94839.97
2023-03-01T13:55:37.556Z,94854.88
2023-03-01T13:58:16.401Z,94849.28
2023-03-01T14:00:43.509Z,94825.59
2023-03-01T14:03:21.095Z,94803.69
2023-03-01T14:06:16.204Z,94827.13
2023-03-01T14:08:44.938Z,94818.75
2023-03-01T14:11:26.447Z,94806.94
2023-03-01T14:14:13.510Z,94795.63
2023-03-01T14:17:17.443Z,94823.19
2023-03-01T14:19:47.855Z,94815.22
2023-03-01T14:22:18.488Z,94825.63
2023-03-01T14:24:51.450Z,94828.91
2023-03-01T14:27:18.740Z,94800.09
2023-03-01T14:29:56.439Z,94801.22
2023-03-01T14:32:27.270Z,94816.66
2023-03-01T14:34:55.318Z,94807.00
2023-03-01T14:37:29.906Z,94805.28
2023-03-01T14:39:57.768Z,94803.13
2023-03-01T14:42:28.341Z,94815.78
2023-03-01T14:44:58.037Z,94818.28
2023-03-01T14:47:36.810Z,94821.94
2023-03-01T14:50:27.336Z,94832.28
2023-03-01T14:52:58.234Z,94820.72
2023-03-01T14:55:35.891Z,94829.03
2023-03-01T14:58:07.560Z,94836.28
2023-03-01T15:00:36.594Z,94826.97
2023-03-01T15:03:18.828Z,94826.63
2023-03-01T15:05:45.832Z,94817.00
2023-03-01T15:08:22.434Z,94828.00
2023-03-01T15:11:20.553Z,94826.09
2023-03-01T15:13:48.303Z,94818.19
2023-03-01T15:16:18.317Z,94833.72
2023-03-01T15:18:52.641Z,94831.38
2023-03-01T15:21:34.216Z,94821.53
2023-03-01T15:24:05.971Z,94832.38
2023-03-01T15:26:38.731Z,94829.19
2023-03-01T15:29:05.981Z,94825.66
2023-03-01T15:31:39.451Z,94830.63
2023-03-01T15:34:31.419Z,94815.13
2023-03-01T15:37:01.645Z,94821.50
2023-03-01T15:39:38.340Z,94820.28
2023-03-01T15:42:12.455Z,94826.41
2023-03-01T15:44:48.356Z,94819.50
2023-03-01T15:47:28.119Z,94816.56
2023-03-01T15:49:56.434Z,94802.91
2023-03-01T15:52:31.814Z,94807.06
2023-03-01T15:55:04.912Z,94803.72
2023-03-01T15:57:31.870Z,94802.88
2023-03-01T15:59:58.632Z,94794.09
2023-03-01T16:02:25.614Z,94782.34
2023-03-01T16:04:52.846Z,94792.06
2023-03-01T16:07:19.737Z,94785.53
2023-03-01T16:09:47.140Z,94778.16
2023-03-01T16:12:18.301Z,94780.50
2023-03-01T16:14:44.995Z,94783.56
2023-03-01T16:17:11.692Z,94770.44
2023-03-01T16:19:39.106Z,94768.25
2023-03-01T16:22:06.535Z,94764.44
2023-03-01T16:24:33.750Z,94749.69
2023-03-01T16:27:00.485Z,94757.94
2023-03-01T16:29:27.286Z,94774.16
2023-03-01T16:31:54.225Z,94756.19
2023-03-01T16:34:22.855Z,94746.97
2023-03-01T16:36:50.160Z,94740.16
2023-03-01T16:39:17.613Z,94745.81
2023-03-01T16:41:44.539Z,94746.66
2023-03-01T16:44:11.520Z,94728.25
2023-03-01T16:46:38.348Z,94739.66
2023-03-01T16:49:05.118Z,94753.28
2023-03-01T16:51:33.943Z,94756.41
2023-03-01T16:54:00.738Z,94761.56
2023-03-01T16:56:27.587Z,94772.09
2023-03-01T16:58:54.465Z,94764.56
2023-03-01T17:01:25.460Z,94777.78
2023-03-01T17:03:53.000Z,94760.94
2023-03-01T17:06:24.584Z,94776.28
2023-03-01T17:08:52.039Z,94789.06
2023-03-01T17:11:20.439Z,94782.25
2023-03-01T17:13:48.866Z,94784.13
2023-03-01T17:16:18.904Z,94786.69
2023-03-01T17:18:46.925Z,94790.44
2023-03-01T17:21:14.393Z,94796.88
2023-03-01T17:23:43.721Z,94807.34
2023-03-01T17:26:10.597Z,94814.16
2023-03-01T17:28:38.918Z,94812.78
2023-03-01T17:31:07.360Z,94805.00
2023-03-01T17:33:34.435Z,94806.47
2023-03-01T17:36:02.034Z,94815.78
2023-03-01T17:38:28.842Z,94812.00
2023-03-01T17:40:55.570Z,94811.47
2023-03-01T17:43:22.572Z,94813.00
2023-03-01T17:45:52.464Z,94815.75
2023-03-01T17:48:19.521Z,94810.66
2023-03-01T17:50:47.230Z,94820.16
2023-03-01T17:53:14.442Z,94812.25
2023-03-01T17:55:43.300Z,94802.78
2023-03-01T17:58:13.032Z,94819.25
2023-03-01T18:00:40.349Z,94825.16
2023-03-01T18:03:07.756Z,94816.06
2023-03-01T18:05:36.652Z,94826.81
2023-03-01T18:08:04.141Z,94823.63
2023-03-01T18:10:32.606Z,94808.16
2023-03-01T18:12:59.690Z,94794.63
2023-03-01T18:15:26.475Z,94802.28
2023-03-01T18:17:53.827Z,94809.72
2023-03-01T18:20:21.170Z,94802.41
2023-03-01T18:22:48.930Z,94808.94
2023-03-01T18:25:15.689Z,94819.97
2023-03-01T18:27:42.540Z,94813.41
2023-03-01T18:30:11.635Z,94795.59
2023-03-01T18:32:39.806Z,94798.69
2023-03-01T18:35:07.982Z,94802.09
2023-03-01T18:37:34.993Z,94806.19
2023-03-01T18:40:01.927Z,94800.81
2023-03-01T18:42:28.663Z,94811.63
2023-03-01T18:44:55.418Z,94815.19
2023-03-01T18:47:22.966Z,94826.53
2023-03-01T18:49:49.979Z,94825.19
2023-03-01T18:52:16.793Z,94820.06
2023-03-01T18:54:43.577Z,94816.50
2023-03-01T18:57:10.289Z,94813.66
2023-03-01T18:59:38.054Z,94816.28
2023-03-01T19:02:05.163Z,94804.72
2023-03-01T19:04:32.082Z,94793.13
2023-03-01T19:07:02.097Z,94800.41
2023-03-01T19:09:29.193Z,94806.75
2023-03-01T19:11:58.888Z,94804.06
2023-03-01T19:14:25.836Z,94804.19
2023-03-01T19:16:53.375Z,94806.81
2023-03-01T19:19:20.841Z,94808.44
2023-03-01T19:21:59.294Z,94803.91
2023-03-01T19:24:31.814Z,94805.13
2023-03-01T19:26:58.593Z,94801.31
2023-03-01T19:29:25.436Z,94790.50
2023-03-01T19:31:52.310Z,94803.34
2023-03-01T19:34:19.375Z,94806.72
2023-03-01T19:36:48.240Z,94806.75
2023-03-01T19:39:14.959Z,94810.84
2023-03-01T19:41:42.625Z,94813.28
2023-03-01T19:44:10.706Z,94808.56
2023-03-01T19:46:38.858Z,94811.31
2023-03-01T19:49:06.077Z,94810.13
2023-03-01T19:51:36.123Z,94824.41
2023-03-01T19:54:04.614Z,94818.84
2023-03-01T19:56:31.923Z,94815.66
2023-03-01T19:59:00.671Z,94815.66
2023-03-01T20:01:29.851Z,94816.97
2023-03-01T20:03:56.676Z,94817.59
2023-03-01T20:06:25.637Z,94813.53
2023-03-01T20:08:52.788Z,94814.31
2023-03-01T20:11:19.944Z,94802.78
2023-03-01T20:13:47.473Z,94797.41
2023-03-01T20:16:17.403Z,94805.22
2023-03-01T20:18:44.411Z,94800.81
2023-03-01T20:21:22.739Z,94799.22
2023-03-01T20:23:50.710Z,94797.38
2023-03-01T20:26:20.064Z,94797.75
2023-03-01T20:28:48.640Z,94801.84
2023-03-01T20:31:17.936Z,94801.53
2023-03-01T20:33:44.967Z,94793.41
2023-03-01T20:36:12.194Z,94767.09
2023-03-01T20:38:39.313Z,94776.50
2023-03-01T20:41:09.404Z,94776.38
2023-03-01T20:43:37.611Z,94770.56
2023-03-01T20:46:11.377Z,94764.88
2023-03-01T20:48:39.332Z,94769.56
2023-03-01T20:51:07.691Z,94765.31
2023-03-01T20:53:35.179Z,94775.66
2023-03-01T20:56:04.139Z,94754.94
2023-03-01T20:58:33.000Z,94738.09
2023-03-01T21:00:59.962Z,94735.03
2023-03-01T21:03:26.963Z,94748.31
2023-03-01T21:06:02.457Z,94739.06
2023-03-01T21:08:30.537Z,94744.56
2023-03-01T21:10:57.988Z,94746.78
2023-03-01T21:13:26.484Z,94750.59
2023-03-01T21:16:03.362Z,94749.59
2023-03-01T21:18:31.595Z,94752.84
2023-03-01T21:21:04.908Z,94753.13
2023-03-01T21:23:34.492Z,94735.50
2023-03-01T21:26:05.692Z,94712.69
2023-03-01T21:28:34.391Z,94730.38
2023-03-01T21:31:10.917Z,94716.81
2023-03-01T21:33:39.950Z,94701.75
2023-03-01T21:36:09.995Z,94705.03
2023-03-01T21:38:42.009Z,94705.41
2023-03-01T21:41:11.521Z,94706.41
2023-03-01T21:43:40.138Z,94710.28
2023-03-01T21:46:11.015Z,94713.84
2023-03-01T21:48:39.905Z,94701.56
2023-03-01T21:51:08.288Z,94714.22
2023-03-01T21:53:35.989Z,94723.63
2023-03-01T21:56:02.884Z,94707.91
2023-03-01T21:58:31.563Z,94701.88
2023-03-01T22:01:07.144Z,94706.56
2023-03-01T22:03:33.912Z,94679.03
2023-03-01T22:06:05.042Z,94661.50
2023-03-01T22:08:31.764Z,94666.16
2023-03-01T22:11:01.831Z,94666.19
2023-03-01T22:13:28.572Z,94653.16
2023-03-01T22:15:55.278Z,94660.19
2023-03-01T22:18:22.594Z,94637.59
2023-03-01T22:20:49.354Z,94655.19
2023-03-01T22:23:16.233Z,94621.44
2023-03-01T22:25:42.997Z,94633.53
2023-03-01T22:28:10.202Z,94611.94
2023-03-01T22:30:37.170Z,94607.16
2023-03-01T22:33:04.315Z,94616.50
2023-03-01T22:35:31.199Z,94607.84
2023-03-01T22:37:57.947Z,94619.16
2023-03-01T22:40:25.520Z,94620.16
2023-03-01T22:42:52.505Z,94626.56
2023-03-01T22:45:19.233Z,94627.09
2023-03-01T22:47:45.915Z,94625.16
2023-03-01T22:50:14.965Z,94608.84
2023-03-01T22:52:41.862Z,94612.91
2023-03-01T22:55:09.157Z,94610.09
2023-03-01T22:57:36.041Z,94643.06
2023-03-01T23:00:13.090Z,94642.19
2023-03-01T23:02:43.538Z,94647.41
2023-03-01T23:05:11.005Z,94602.41
2023-03-01T23:07:37.906Z,94626.94
2023-03-01T23:10:06.246Z,94618.34
2023-03-01T23:12:33.396Z,94606.19
2023-03-01T23:15:00.174Z,94624.88
2023-03-01T23:17:27.059Z,94620.22
2023-03-01T23:19:53.898Z,94611.19
2023-03-01T23:22:21.002Z,94614.72
2023-03-01T23:24:48.884Z,94603.75
2023-03-01T23:27:19.264Z,94588.28
2023-03-01T23:29:45.981Z,94591.78
2023-03-01T23:32:13.394Z,94597.41
2023-03-01T23:34:43.791Z,94591.44
2023-03-01T23:37:10.976Z,94590.50
2023-03-01T23:39:38.598Z,94577.44
2023-03-01T23:42:05.789Z,94573.69
2023-03-01T23:44:32.855Z,94597.69
2023-03-01T23:46:59.575Z,94589.25
2023-03-01T23:49:27.881Z,94569.44
2023-03-01T23:51:54.699Z,94562.97
2023-03-01T23:54:23.692Z,94585.88
2023-03-01T23:56:50.998Z,94574.97
2023-03-01T23:59:22.063Z,94578.81
